sensor_id;sensor_type;location;lat;lon;timestamp;P1;durP1;ratioP1;P2;durP2;ratioP2
64459;SDS011;50828;53.756;21.140;2022-12-18T00:04:18;25.70;;;9.30;;
64459;SDS011;50828;53.756;21.140;2022-12-18T00:09:30;25.80;;;9.90;;
64459;SDS011;50828;53.756;21.140;2022-12-18T00:14:46;24.20;;;8.80;;
64459;SDS011;50828;53.756;21.140;2022-12-18T00:19:55;21.70;;;8.20;;
64459;SDS011;50828;53.756;21.140;2022-12-18T00:25:03;22.50;;;7.70;;
64459;SDS011;50828;53.756;21.140;2022-12-18T00:30:12;20.80;;;9.10;;
64459;SDS011;50828;53.756;21.140;2022-12-18T00:35:21;20.70;;;6.80;;
64459;SDS011;50828;53.756;21.140;2022-12-18T00:40:29;23.60;;;8.10;;
64459;SDS011;50828;53.756;21.140;2022-12-18T00:45:37;24.20;;;7.80;;
64459;SDS011;50828;53.756;21.140;2022-12-18T00:50:47;26.40;;;8.40;;
64459;SDS011;50828;53.756;21.140;2022-12-18T00:55:56;23.30;;;8.60;;
64459;SDS011;50828;53.756;21.140;2022-12-18T01:01:05;19.20;;;7.40;;
64459;SDS011;50828;53.756;21.140;2022-12-18T01:06:14;24.50;;;8.00;;
64459;SDS011;50828;53.756;21.140;2022-12-18T01:11:23;21.50;;;9.00;;
64459;SDS011;50828;53.756;21.140;2022-12-18T01:16:32;25.20;;;8.80;;
64459;SDS011;50828;53.756;21.140;2022-12-18T01:21:41;27.40;;;9.90;;
64459;SDS011;50828;53.756;21.140;2022-12-18T01:26:50;28.90;;;9.00;;
64459;SDS011;50828;53.756;21.140;2022-12-18T01:31:59;24.00;;;9.10;;
64459;SDS011;50828;53.756;21.140;2022-12-18T01:37:07;22.80;;;8.20;;
64459;SDS011;50828;53.756;21.140;2022-12-18T01:42:15;19.70;;;8.60;;
64459;SDS011;50828;53.756;21.140;2022-12-18T01:47:26;22.60;;;7.90;;
64459;SDS011;50828;53.756;21.140;2022-12-18T01:52:41;21.30;;;7.10;;
64459;SDS011;50828;53.756;21.140;2022-12-18T01:57:54;20.50;;;8.00;;
64459;SDS011;50828;53.756;21.140;2022-12-18T02:03:04;18.20;;;6.80;;
64459;SDS011;50828;53.756;21.140;2022-12-18T02:08:15;17.00;;;6.30;;
64459;SDS011;50828;53.756;21.140;2022-12-18T02:13:27;17.30;;;6.70;;
64459;SDS011;50828;53.756;21.140;2022-12-18T02:18:45;16.80;;;5.70;;
64459;SDS011;50828;53.756;21.140;2022-12-18T02:24:00;19.20;;;6.50;;
64459;SDS011;50828;53.756;21.140;2022-12-18T02:29:25;20.60;;;6.80;;
64459;SDS011;50828;53.756;21.140;2022-12-18T02:34:38;17.00;;;6.70;;
64459;SDS011;50828;53.756;21.140;2022-12-18T02:39:51;17.80;;;7.00;;
64459;SDS011;50828;53.756;21.140;2022-12-18T02:45:03;25.50;;;8.40;;
64459;SDS011;50828;53.756;21.140;2022-12-18T02:50:14;25.50;;;8.40;;
64459;SDS011;50828;53.756;21.140;2022-12-18T02:55:31;20.10;;;7.70;;
64459;SDS011;50828;53.756;21.140;2022-12-18T03:00:52;23.80;;;7.80;;
64459;SDS011;50828;53.756;21.140;2022-12-18T03:06:07;24.20;;;8.20;;
64459;SDS011;50828;53.756;21.140;2022-12-18T03:11:19;21.30;;;7.70;;
64459;SDS011;50828;53.756;21.140;2022-12-18T03:16:49;23.20;;;8.20;;
64459;SDS011;50828;53.756;21.140;2022-12-18T03:22:02;20.00;;;7.30;;
64459;SDS011;50828;53.756;21.140;2022-12-18T03:27:20;16.50;;;6.80;;
64459;SDS011;50828;53.756;21.140;2022-12-18T03:32:33;16.90;;;6.60;;
64459;SDS011;50828;53.756;21.140;2022-12-18T03:37:46;15.70;;;5.60;;
64459;SDS011;50828;53.756;21.140;2022-12-18T03:42:56;15.00;;;6.50;;
64459;SDS011;50828;53.756;21.140;2022-12-18T03:48:12;16.80;;;5.50;;
64459;SDS011;50828;53.756;21.140;2022-12-18T03:53:32;13.30;;;5.20;;
64459;SDS011;50828;53.756;21.140;2022-12-18T03:58:44;13.90;;;5.10;;
64459;SDS011;50828;53.756;21.140;2022-12-18T04:03:59;12.60;;;5.20;;
64459;SDS011;50828;53.756;21.140;2022-12-18T04:09:11;15.60;;;5.90;;
64459;SDS011;50828;53.756;21.140;2022-12-18T04:14:22;16.50;;;6.00;;
64459;SDS011;50828;53.756;21.140;2022-12-18T04:19:32;12.40;;;4.90;;
64459;SDS011;50828;53.756;21.140;2022-12-18T04:24:41;11.40;;;4.60;;
64459;SDS011;50828;53.756;21.140;2022-12-18T04:29:56;14.10;;;5.40;;
64459;SDS011;50828;53.756;21.140;2022-12-18T04:35:07;11.60;;;4.30;;
64459;SDS011;50828;53.756;21.140;2022-12-18T04:40:18;10.50;;;4.80;;
64459;SDS011;50828;53.756;21.140;2022-12-18T04:45:26;14.20;;;5.20;;
64459;SDS011;50828;53.756;21.140;2022-12-18T04:50:35;13.50;;;5.20;;
64459;SDS011;50828;53.756;21.140;2022-12-18T04:55:44;16.70;;;5.90;;
64459;SDS011;50828;53.756;21.140;2022-12-18T05:00:52;14.50;;;6.50;;
64459;SDS011;50828;53.756;21.140;2022-12-18T05:06:00;16.70;;;7.30;;
64459;SDS011;50828;53.756;21.140;2022-12-18T05:11:10;13.20;;;5.20;;
64459;SDS011;50828;53.756;21.140;2022-12-18T05:16:20;9.90;;;4.70;;
64459;SDS011;50828;53.756;21.140;2022-12-18T05:21:28;13.30;;;5.60;;
64459;SDS011;50828;53.756;21.140;2022-12-18T05:26:36;10.30;;;5.20;;
64459;SDS011;50828;53.756;21.140;2022-12-18T05:31:45;12.50;;;5.40;;
64459;SDS011;50828;53.756;21.140;2022-12-18T05:36:54;12.20;;;5.50;;
64459;SDS011;50828;53.756;21.140;2022-12-18T05:42:02;14.60;;;6.00;;
64459;SDS011;50828;53.756;21.140;2022-12-18T05:47:10;17.00;;;7.40;;
64459;SDS011;50828;53.756;21.140;2022-12-18T05:52:19;15.30;;;6.70;;
64459;SDS011;50828;53.756;21.140;2022-12-18T05:57:27;16.90;;;6.10;;
64459;SDS011;50828;53.756;21.140;2022-12-18T06:02:36;13.00;;;6.00;;
64459;SDS011;50828;53.756;21.140;2022-12-18T06:07:44;15.80;;;7.20;;
64459;SDS011;50828;53.756;21.140;2022-12-18T06:12:53;17.60;;;7.20;;
64459;SDS011;50828;53.756;21.140;2022-12-18T06:18:02;15.30;;;7.80;;
64459;SDS011;50828;53.756;21.140;2022-12-18T06:23:10;16.40;;;7.10;;
64459;SDS011;50828;53.756;21.140;2022-12-18T06:28:18;18.10;;;7.00;;
64459;SDS011;50828;53.756;21.140;2022-12-18T06:33:27;14.60;;;6.90;;
64459;SDS011;50828;53.756;21.140;2022-12-18T06:38:37;14.50;;;6.40;;
64459;SDS011;50828;53.756;21.140;2022-12-18T06:43:47;17.10;;;7.00;;
64459;SDS011;50828;53.756;21.140;2022-12-18T06:49:02;18.30;;;6.40;;
64459;SDS011;50828;53.756;21.140;2022-12-18T06:54:10;19.30;;;7.20;;
64459;SDS011;50828;53.756;21.140;2022-12-18T06:59:18;19.30;;;7.50;;
64459;SDS011;50828;53.756;21.140;2022-12-18T07:04:29;22.40;;;8.20;;
64459;SDS011;50828;53.756;21.140;2022-12-18T07:09:38;19.20;;;7.90;;
64459;SDS011;50828;53.756;21.140;2022-12-18T07:14:46;17.50;;;7.60;;
64459;SDS011;50828;53.756;21.140;2022-12-18T07:19:54;19.20;;;8.20;;
64459;SDS011;50828;53.756;21.140;2022-12-18T07:25:03;23.20;;;8.60;;
64459;SDS011;50828;53.756;21.140;2022-12-18T07:30:13;16.40;;;7.30;;
64459;SDS011;50828;53.756;21.140;2022-12-18T07:35:21;17.40;;;7.00;;
64459;SDS011;50828;53.756;21.140;2022-12-18T07:40:30;22.60;;;8.10;;
64459;SDS011;50828;53.756;21.140;2022-12-18T07:45:38;18.40;;;7.00;;
64459;SDS011;50828;53.756;21.140;2022-12-18T07:50:46;16.20;;;7.70;;
64459;SDS011;50828;53.756;21.140;2022-12-18T07:55:56;21.40;;;7.70;;
64459;SDS011;50828;53.756;21.140;2022-12-18T08:01:26;14.70;;;6.70;;
64459;SDS011;50828;53.756;21.140;2022-12-18T08:06:35;16.70;;;7.20;;
64459;SDS011;50828;53.756;21.140;2022-12-18T08:11:50;17.60;;;7.10;;
64459;SDS011;50828;53.756;21.140;2022-12-18T08:16:58;19.70;;;7.00;;
64459;SDS011;50828;53.756;21.140;2022-12-18T08:22:07;17.50;;;6.80;;
64459;SDS011;50828;53.756;21.140;2022-12-18T08:27:16;19.90;;;7.30;;
64459;SDS011;50828;53.756;21.140;2022-12-18T08:32:34;15.30;;;6.80;;
64459;SDS011;50828;53.756;21.140;2022-12-18T08:37:42;17.20;;;7.10;;
64459;SDS011;50828;53.756;21.140;2022-12-18T08:42:51;19.10;;;7.00;;
64459;SDS011;50828;53.756;21.140;2022-12-18T08:48:17;17.90;;;6.20;;
64459;SDS011;50828;53.756;21.140;2022-12-18T08:53:28;19.10;;;7.70;;
64459;SDS011;50828;53.756;21.140;2022-12-18T08:58:39;18.30;;;7.50;;
64459;SDS011;50828;53.756;21.140;2022-12-18T09:03:50;17.30;;;7.40;;
64459;SDS011;50828;53.756;21.140;2022-12-18T09:08:59;15.50;;;7.00;;
64459;SDS011;50828;53.756;21.140;2022-12-18T09:14:08;18.10;;;6.40;;
64459;SDS011;50828;53.756;21.140;2022-12-18T09:19:17;12.30;;;6.20;;
64459;SDS011;50828;53.756;21.140;2022-12-18T09:24:25;15.10;;;6.20;;
64459;SDS011;50828;53.756;21.140;2022-12-18T09:29:34;15.70;;;7.00;;
64459;SDS011;50828;53.756;21.140;2022-12-18T09:34:42;12.90;;;6.10;;
64459;SDS011;50828;53.756;21.140;2022-12-18T09:39:50;11.90;;;5.40;;
64459;SDS011;50828;53.756;21.140;2022-12-18T09:44:59;14.80;;;6.60;;
64459;SDS011;50828;53.756;21.140;2022-12-18T09:50:16;15.80;;;7.00;;
64459;SDS011;50828;53.756;21.140;2022-12-18T10:00:46;14.10;;;6.90;;
64459;SDS011;50828;53.756;21.140;2022-12-18T10:05:59;14.90;;;6.90;;
64459;SDS011;50828;53.756;21.140;2022-12-18T10:11:21;22.10;;;7.40;;
64459;SDS011;50828;53.756;21.140;2022-12-18T10:16:49;16.10;;;6.90;;
64459;SDS011;50828;53.756;21.140;2022-12-18T10:22:10;16.80;;;7.20;;
64459;SDS011;50828;53.756;21.140;2022-12-18T10:27:28;16.40;;;6.70;;
64459;SDS011;50828;53.756;21.140;2022-12-18T10:32:36;14.40;;;6.80;;
64459;SDS011;50828;53.756;21.140;2022-12-18T10:43:12;16.10;;;6.30;;
64459;SDS011;50828;53.756;21.140;2022-12-18T10:48:22;15.10;;;7.40;;
64459;SDS011;50828;53.756;21.140;2022-12-18T10:53:31;17.30;;;6.70;;
64459;SDS011;50828;53.756;21.140;2022-12-18T10:58:41;20.00;;;7.30;;
64459;SDS011;50828;53.756;21.140;2022-12-18T11:04:02;23.60;;;9.20;;
64459;SDS011;50828;53.756;21.140;2022-12-18T11:09:20;22.50;;;7.60;;
64459;SDS011;50828;53.756;21.140;2022-12-18T11:14:30;23.50;;;9.10;;
64459;SDS011;50828;53.756;21.140;2022-12-18T11:19:54;21.60;;;8.60;;
64459;SDS011;50828;53.756;21.140;2022-12-18T11:25:04;22.10;;;8.40;;
64459;SDS011;50828;53.756;21.140;2022-12-18T11:30:40;26.60;;;9.90;;
64459;SDS011;50828;53.756;21.140;2022-12-18T11:35:49;25.20;;;8.90;;
64459;SDS011;50828;53.756;21.140;2022-12-18T11:41:00;22.20;;;9.10;;
64459;SDS011;50828;53.756;21.140;2022-12-18T11:46:19;24.60;;;9.50;;
64459;SDS011;50828;53.756;21.140;2022-12-18T11:51:38;28.40;;;10.60;;
64459;SDS011;50828;53.756;21.140;2022-12-18T11:56:53;31.30;;;10.30;;
64459;SDS011;50828;53.756;21.140;2022-12-18T12:02:20;30.20;;;10.70;;
64459;SDS011;50828;53.756;21.140;2022-12-18T12:07:45;26.20;;;10.00;;
64459;SDS011;50828;53.756;21.140;2022-12-18T12:13:07;35.30;;;11.80;;
64459;SDS011;50828;53.756;21.140;2022-12-18T12:18:32;33.60;;;12.50;;
64459;SDS011;50828;53.756;21.140;2022-12-18T12:23:53;41.20;;;12.40;;
64459;SDS011;50828;53.756;21.140;2022-12-18T12:29:13;41.80;;;13.90;;
64459;SDS011;50828;53.756;21.140;2022-12-18T12:34:37;47.80;;;15.10;;
64459;SDS011;50828;53.756;21.140;2022-12-18T12:39:50;45.10;;;15.10;;
64459;SDS011;50828;53.756;21.140;2022-12-18T12:45:00;49.30;;;14.50;;
64459;SDS011;50828;53.756;21.140;2022-12-18T12:50:14;46.80;;;15.50;;
64459;SDS011;50828;53.756;21.140;2022-12-18T12:55:26;49.60;;;14.20;;
64459;SDS011;50828;53.756;21.140;2022-12-18T13:00:39;46.10;;;13.90;;
64459;SDS011;50828;53.756;21.140;2022-12-18T13:05:55;47.40;;;14.40;;
64459;SDS011;50828;53.756;21.140;2022-12-18T13:11:14;56.00;;;15.80;;
64459;SDS011;50828;53.756;21.140;2022-12-18T13:22:42;52.70;;;16.00;;
64459;SDS011;50828;53.756;21.140;2022-12-18T13:44:41;51.20;;;16.70;;
64459;SDS011;50828;53.756;21.140;2022-12-18T13:49:51;48.40;;;16.00;;
64459;SDS011;50828;53.756;21.140;2022-12-18T13:55:01;60.60;;;16.50;;
64459;SDS011;50828;53.756;21.140;2022-12-18T14:10:48;51.60;;;15.60;;
64459;SDS011;50828;53.756;21.140;2022-12-18T14:15:58;54.00;;;16.10;;
64459;SDS011;50828;53.756;21.140;2022-12-18T14:21:14;55.40;;;14.60;;
64459;SDS011;50828;53.756;21.140;2022-12-18T14:26:27;59.00;;;17.70;;
64459;SDS011;50828;53.756;21.140;2022-12-18T14:31:37;63.00;;;17.30;;
64459;SDS011;50828;53.756;21.140;2022-12-18T14:36:53;50.80;;;14.40;;
64459;SDS011;50828;53.756;21.140;2022-12-18T14:42:01;58.00;;;18.20;;
64459;SDS011;50828;53.756;21.140;2022-12-18T14:47:14;71.50;;;19.00;;
64459;SDS011;50828;53.756;21.140;2022-12-18T14:52:25;66.40;;;18.10;;
64459;SDS011;50828;53.756;21.140;2022-12-18T14:57:38;52.10;;;16.90;;
64459;SDS011;50828;53.756;21.140;2022-12-18T15:02:49;60.60;;;17.20;;
64459;SDS011;50828;53.756;21.140;2022-12-18T15:08:00;75.70;;;18.50;;
64459;SDS011;50828;53.756;21.140;2022-12-18T15:13:15;63.90;;;17.00;;
64459;SDS011;50828;53.756;21.140;2022-12-18T15:18:29;63.90;;;16.70;;
64459;SDS011;50828;53.756;21.140;2022-12-18T15:23:46;62.40;;;18.50;;
64459;SDS011;50828;53.756;21.140;2022-12-18T15:28:55;76.50;;;19.90;;
64459;SDS011;50828;53.756;21.140;2022-12-18T15:34:18;70.70;;;17.10;;
64459;SDS011;50828;53.756;21.140;2022-12-18T15:39:28;59.60;;;16.20;;
64459;SDS011;50828;53.756;21.140;2022-12-18T15:44:36;60.10;;;17.20;;
64459;SDS011;50828;53.756;21.140;2022-12-18T15:49:45;63.90;;;17.40;;
64459;SDS011;50828;53.756;21.140;2022-12-18T15:54:55;66.10;;;17.00;;
64459;SDS011;50828;53.756;21.140;2022-12-18T16:00:22;71.10;;;19.40;;
64459;SDS011;50828;53.756;21.140;2022-12-18T16:05:31;64.10;;;17.90;;
64459;SDS011;50828;53.756;21.140;2022-12-18T16:10:40;69.30;;;19.60;;
64459;SDS011;50828;53.756;21.140;2022-12-18T16:15:48;65.50;;;18.10;;
64459;SDS011;50828;53.756;21.140;2022-12-18T16:20:57;75.10;;;20.80;;
64459;SDS011;50828;53.756;21.140;2022-12-18T16:26:06;77.00;;;19.80;;
64459;SDS011;50828;53.756;21.140;2022-12-18T16:31:16;67.50;;;18.00;;
64459;SDS011;50828;53.756;21.140;2022-12-18T16:43:33;92.70;;;25.10;;
64459;SDS011;50828;53.756;21.140;2022-12-18T16:48:43;76.90;;;22.70;;
64459;SDS011;50828;53.756;21.140;2022-12-18T16:53:51;93.80;;;26.60;;
64459;SDS011;50828;53.756;21.140;2022-12-18T16:59:01;78.70;;;22.00;;
64459;SDS011;50828;53.756;21.140;2022-12-18T17:04:11;75.30;;;21.80;;
64459;SDS011;50828;53.756;21.140;2022-12-18T17:09:20;79.40;;;23.60;;
64459;SDS011;50828;53.756;21.140;2022-12-18T17:14:30;82.20;;;22.70;;
64459;SDS011;50828;53.756;21.140;2022-12-18T17:19:40;78.30;;;23.10;;
64459;SDS011;50828;53.756;21.140;2022-12-18T17:24:48;80.50;;;23.40;;
64459;SDS011;50828;53.756;21.140;2022-12-18T17:29:57;83.40;;;23.40;;
64459;SDS011;50828;53.756;21.140;2022-12-18T17:35:06;76.30;;;22.30;;
64459;SDS011;50828;53.756;21.140;2022-12-18T17:40:15;86.80;;;23.20;;
64459;SDS011;50828;53.756;21.140;2022-12-18T17:45:24;88.30;;;23.70;;
64459;SDS011;50828;53.756;21.140;2022-12-18T17:50:33;85.90;;;24.00;;
64459;SDS011;50828;53.756;21.140;2022-12-18T17:55:42;85.80;;;23.80;;
64459;SDS011;50828;53.756;21.140;2022-12-18T18:01:01;72.00;;;21.40;;
64459;SDS011;50828;53.756;21.140;2022-12-18T18:11:18;85.00;;;20.70;;
64459;SDS011;50828;53.756;21.140;2022-12-18T18:16:47;82.60;;;22.80;;
64459;SDS011;50828;53.756;21.140;2022-12-18T18:21:58;79.50;;;21.80;;
64459;SDS011;50828;53.756;21.140;2022-12-18T18:27:08;79.40;;;23.00;;
64459;SDS011;50828;53.756;21.140;2022-12-18T18:32:16;71.30;;;20.80;;
64459;SDS011;50828;53.756;21.140;2022-12-18T18:37:25;83.00;;;22.70;;
64459;SDS011;50828;53.756;21.140;2022-12-18T18:42:33;85.10;;;23.30;;
64459;SDS011;50828;53.756;21.140;2022-12-18T18:47:42;87.90;;;24.20;;
64459;SDS011;50828;53.756;21.140;2022-12-18T18:52:50;73.30;;;20.90;;
64459;SDS011;50828;53.756;21.140;2022-12-18T18:58:00;78.40;;;20.70;;
64459;SDS011;50828;53.756;21.140;2022-12-18T19:03:09;84.60;;;23.20;;
64459;SDS011;50828;53.756;21.140;2022-12-18T19:08:18;72.60;;;21.80;;
64459;SDS011;50828;53.756;21.140;2022-12-18T19:13:28;70.30;;;19.10;;
64459;SDS011;50828;53.756;21.140;2022-12-18T19:18:37;78.50;;;20.50;;
64459;SDS011;50828;53.756;21.140;2022-12-18T19:23:46;70.70;;;19.70;;
64459;SDS011;50828;53.756;21.140;2022-12-18T19:28:58;70.20;;;21.20;;
64459;SDS011;50828;53.756;21.140;2022-12-18T19:34:08;67.90;;;19.50;;
64459;SDS011;50828;53.756;21.140;2022-12-18T19:39:17;88.10;;;22.60;;
64459;SDS011;50828;53.756;21.140;2022-12-18T19:44:26;87.30;;;20.60;;
64459;SDS011;50828;53.756;21.140;2022-12-18T19:49:34;84.90;;;21.00;;
64459;SDS011;50828;53.756;21.140;2022-12-18T19:54:43;61.40;;;17.90;;
64459;SDS011;50828;53.756;21.140;2022-12-18T19:59:52;75.90;;;19.50;;
64459;SDS011;50828;53.756;21.140;2022-12-18T20:05:01;62.70;;;16.80;;
64459;SDS011;50828;53.756;21.140;2022-12-18T20:10:12;58.30;;;17.20;;
64459;SDS011;50828;53.756;21.140;2022-12-18T20:15:22;54.70;;;16.50;;
64459;SDS011;50828;53.756;21.140;2022-12-18T20:20:30;69.00;;;17.00;;
64459;SDS011;50828;53.756;21.140;2022-12-18T20:25:39;57.30;;;15.60;;
64459;SDS011;50828;53.756;21.140;2022-12-18T20:30:48;70.80;;;16.00;;
64459;SDS011;50828;53.756;21.140;2022-12-18T20:36:01;61.70;;;15.70;;
64459;SDS011;50828;53.756;21.140;2022-12-18T20:41:13;68.60;;;18.20;;
64459;SDS011;50828;53.756;21.140;2022-12-18T20:46:24;64.50;;;16.90;;
64459;SDS011;50828;53.756;21.140;2022-12-18T20:51:32;76.40;;;18.30;;
64459;SDS011;50828;53.756;21.140;2022-12-18T20:56:41;79.30;;;17.70;;
64459;SDS011;50828;53.756;21.140;2022-12-18T21:01:49;76.70;;;20.20;;
64459;SDS011;50828;53.756;21.140;2022-12-18T21:07:02;77.70;;;19.80;;
64459;SDS011;50828;53.756;21.140;2022-12-18T21:12:12;81.70;;;21.10;;
64459;SDS011;50828;53.756;21.140;2022-12-18T21:17:49;74.50;;;20.90;;
64459;SDS011;50828;53.756;21.140;2022-12-18T21:22:58;84.30;;;19.70;;
64459;SDS011;50828;53.756;21.140;2022-12-18T21:28:21;73.80;;;20.10;;
64459;SDS011;50828;53.756;21.140;2022-12-18T21:33:29;82.70;;;20.60;;
64459;SDS011;50828;53.756;21.140;2022-12-18T21:38:38;70.60;;;20.30;;
64459;SDS011;50828;53.756;21.140;2022-12-18T21:43:47;82.70;;;20.30;;
64459;SDS011;50828;53.756;21.140;2022-12-18T21:49:13;64.50;;;21.20;;
64459;SDS011;50828;53.756;21.140;2022-12-18T21:54:25;71.40;;;18.60;;
64459;SDS011;50828;53.756;21.140;2022-12-18T21:59:35;69.20;;;18.50;;
64459;SDS011;50828;53.756;21.140;2022-12-18T22:04:45;76.90;;;21.90;;
64459;SDS011;50828;53.756;21.140;2022-12-18T22:09:54;68.90;;;20.00;;
64459;SDS011;50828;53.756;21.140;2022-12-18T22:15:05;62.40;;;17.80;;
64459;SDS011;50828;53.756;21.140;2022-12-18T22:25:23;74.40;;;19.20;;
64459;SDS011;50828;53.756;21.140;2022-12-18T22:30:32;61.60;;;17.80;;
64459;SDS011;50828;53.756;21.140;2022-12-18T22:35:40;76.30;;;19.30;;
64459;SDS011;50828;53.756;21.140;2022-12-18T22:40:49;81.90;;;20.80;;
64459;SDS011;50828;53.756;21.140;2022-12-18T22:46:05;65.10;;;17.30;;
64459;SDS011;50828;53.756;21.140;2022-12-18T22:51:16;80.10;;;20.70;;
64459;SDS011;50828;53.756;21.140;2022-12-18T22:56:25;85.90;;;21.50;;
64459;SDS011;50828;53.756;21.140;2022-12-18T23:01:33;74.20;;;20.70;;
64459;SDS011;50828;53.756;21.140;2022-12-18T23:06:43;74.50;;;19.70;;
64459;SDS011;50828;53.756;21.140;2022-12-18T23:11:52;69.20;;;17.70;;
64459;SDS011;50828;53.756;21.140;2022-12-18T23:17:00;58.60;;;17.10;;
64459;SDS011;50828;53.756;21.140;2022-12-18T23:22:08;65.30;;;16.40;;
64459;SDS011;50828;53.756;21.140;2022-12-18T23:27:17;56.80;;;16.20;;
64459;SDS011;50828;53.756;21.140;2022-12-18T23:32:25;72.80;;;18.60;;
64459;SDS011;50828;53.756;21.140;2022-12-18T23:37:36;69.50;;;17.60;;
64459;SDS011;50828;53.756;21.140;2022-12-18T23:43:05;58.00;;;14.90;;
64459;SDS011;50828;53.756;21.140;2022-12-18T23:48:13;63.60;;;16.80;;
64459;SDS011;50828;53.756;21.140;2022-12-18T23:53:21;54.30;;;17.40;;
64459;SDS011;50828;53.756;21.140;2022-12-18T23:58:30;64.80;;;17.50;;
